sensor_id;sensor_type;location;lat;lon;timestamp;P1;durP1;ratioP1;P2;durP2;ratioP2
20792;SDS011;10556;-33.662;151.094;2023-06-14T00:04:07;1.80;;;0.50;;
20792;SDS011;10556;-33.662;151.094;2023-06-14T00:09:10;0.87;;;0.40;;
20792;SDS011;10556;-33.662;151.094;2023-06-14T00:14:11;2.00;;;0.50;;
20792;SDS011;10556;-33.662;151.094;2023-06-14T00:19:13;1.30;;;0.40;;
20792;SDS011;10556;-33.662;151.094;2023-06-14T00:24:16;1.73;;;0.50;;
20792;SDS011;10556;-33.662;151.094;2023-06-14T00:29:17;0.90;;;0.40;;
20792;SDS011;10556;-33.662;151.094;2023-06-14T00:34:18;1.77;;;0.43;;
20792;SDS011;10556;-33.662;151.094;2023-06-14T00:39:22;1.67;;;0.60;;
20792;SDS011;10556;-33.662;151.094;2023-06-14T00:44:23;1.43;;;0.40;;
20792;SDS011;10556;-33.662;151.094;2023-06-14T00:49:24;1.17;;;0.30;;
20792;SDS011;10556;-33.662;151.094;2023-06-14T00:54:28;3.50;;;0.27;;
20792;SDS011;10556;-33.662;151.094;2023-06-14T00:59:29;0.20;;;0.20;;
20792;SDS011;10556;-33.662;151.094;2023-06-14T01:04:31;0.70;;;0.20;;
20792;SDS011;10556;-33.662;151.094;2023-06-14T01:09:36;0.40;;;0.20;;
20792;SDS011;10556;-33.662;151.094;2023-06-14T01:14:38;0.77;;;0.30;;
20792;SDS011;10556;-33.662;151.094;2023-06-14T01:19:40;2.03;;;0.30;;
20792;SDS011;10556;-33.662;151.094;2023-06-14T01:24:43;1.13;;;0.20;;
20792;SDS011;10556;-33.662;151.094;2023-06-14T01:29:45;1.27;;;0.20;;
20792;SDS011;10556;-33.662;151.094;2023-06-14T01:34:46;0.20;;;0.10;;
20792;SDS011;10556;-33.662;151.094;2023-06-14T01:39:49;1.00;;;0.20;;
20792;SDS011;10556;-33.662;151.094;2023-06-14T01:44:51;0.97;;;0.10;;
20792;SDS011;10556;-33.662;151.094;2023-06-14T01:49:54;1.50;;;0.20;;
20792;SDS011;10556;-33.662;151.094;2023-06-14T01:54:58;1.47;;;0.40;;
20792;SDS011;10556;-33.662;151.094;2023-06-14T01:59:59;2.57;;;0.20;;
20792;SDS011;10556;-33.662;151.094;2023-06-14T02:05:01;0.30;;;0.10;;
20792;SDS011;10556;-33.662;151.094;2023-06-14T02:10:04;2.03;;;0.80;;
20792;SDS011;10556;-33.662;151.094;2023-06-14T02:15:06;4.03;;;1.80;;
20792;SDS011;10556;-33.662;151.094;2023-06-14T02:20:08;5.93;;;3.17;;
20792;SDS011;10556;-33.662;151.094;2023-06-14T02:25:11;3.33;;;1.73;;
20792;SDS011;10556;-33.662;151.094;2023-06-14T02:30:13;3.43;;;1.90;;
20792;SDS011;10556;-33.662;151.094;2023-06-14T02:35:14;2.20;;;1.43;;
20792;SDS011;10556;-33.662;151.094;2023-06-14T02:40:17;1.00;;;0.50;;
20792;SDS011;10556;-33.662;151.094;2023-06-14T02:45:19;2.37;;;0.33;;
20792;SDS011;10556;-33.662;151.094;2023-06-14T02:50:20;1.17;;;0.40;;
20792;SDS011;10556;-33.662;151.094;2023-06-14T02:55:23;0.47;;;0.23;;
20792;SDS011;10556;-33.662;151.094;2023-06-14T03:00:25;5.30;;;0.70;;
20792;SDS011;10556;-33.662;151.094;2023-06-14T03:05:26;0.20;;;0.20;;
20792;SDS011;10556;-33.662;151.094;2023-06-14T03:10:29;0.40;;;0.20;;
20792;SDS011;10556;-33.662;151.094;2023-06-14T03:15:30;0.83;;;0.27;;
20792;SDS011;10556;-33.662;151.094;2023-06-14T03:20:32;2.23;;;0.60;;
20792;SDS011;10556;-33.662;151.094;2023-06-14T03:25:35;0.40;;;0.17;;
20792;SDS011;10556;-33.662;151.094;2023-06-14T03:30:36;0.93;;;0.30;;
20792;SDS011;10556;-33.662;151.094;2023-06-14T03:35:38;0.67;;;0.10;;
20792;SDS011;10556;-33.662;151.094;2023-06-14T03:40:41;0.70;;;0.20;;
20792;SDS011;10556;-33.662;151.094;2023-06-14T03:45:42;0.30;;;0.10;;
20792;SDS011;10556;-33.662;151.094;2023-06-14T03:50:43;0.40;;;0.10;;
20792;SDS011;10556;-33.662;151.094;2023-06-14T03:55:47;1.13;;;0.20;;
20792;SDS011;10556;-33.662;151.094;2023-06-14T04:00:48;3.07;;;0.70;;
20792;SDS011;10556;-33.662;151.094;2023-06-14T04:05:49;9.33;;;6.13;;
20792;SDS011;10556;-33.662;151.094;2023-06-14T04:10:52;2.30;;;1.30;;
20792;SDS011;10556;-33.662;151.094;2023-06-14T04:15:54;0.97;;;0.70;;
20792;SDS011;10556;-33.662;151.094;2023-06-14T04:20:55;3.20;;;2.37;;
20792;SDS011;10556;-33.662;151.094;2023-06-14T04:25:58;1.90;;;1.20;;
20792;SDS011;10556;-33.662;151.094;2023-06-14T04:31:00;7.67;;;4.97;;
20792;SDS011;10556;-33.662;151.094;2023-06-14T04:36:01;6.10;;;3.27;;
20792;SDS011;10556;-33.662;151.094;2023-06-14T04:41:04;18.77;;;11.37;;
20792;SDS011;10556;-33.662;151.094;2023-06-14T04:46:06;18.07;;;9.37;;
20792;SDS011;10556;-33.662;151.094;2023-06-14T04:51:07;4.47;;;2.60;;
20792;SDS011;10556;-33.662;151.094;2023-06-14T04:56:11;1.37;;;0.63;;
20792;SDS011;10556;-33.662;151.094;2023-06-14T05:01:12;0.73;;;0.57;;
20792;SDS011;10556;-33.662;151.094;2023-06-14T05:06:13;0.33;;;0.30;;
20792;SDS011;10556;-33.662;151.094;2023-06-14T05:11:17;0.33;;;0.20;;
20792;SDS011;10556;-33.662;151.094;2023-06-14T05:16:18;0.47;;;0.13;;
20792;SDS011;10556;-33.662;151.094;2023-06-14T05:21:22;0.70;;;0.47;;
20792;SDS011;10556;-33.662;151.094;2023-06-14T05:26:25;1.00;;;0.37;;
20792;SDS011;10556;-33.662;151.094;2023-06-14T05:31:26;1.20;;;0.70;;
20792;SDS011;10556;-33.662;151.094;2023-06-14T05:36:28;1.50;;;0.43;;
20792;SDS011;10556;-33.662;151.094;2023-06-14T05:41:31;4.83;;;1.57;;
20792;SDS011;10556;-33.662;151.094;2023-06-14T05:46:32;1.07;;;0.53;;
20792;SDS011;10556;-33.662;151.094;2023-06-14T05:51:34;1.00;;;0.43;;
20792;SDS011;10556;-33.662;151.094;2023-06-14T05:56:37;0.40;;;0.23;;
20792;SDS011;10556;-33.662;151.094;2023-06-14T06:01:39;0.40;;;0.30;;
20792;SDS011;10556;-33.662;151.094;2023-06-14T06:06:40;0.33;;;0.30;;
20792;SDS011;10556;-33.662;151.094;2023-06-14T06:11:43;1.30;;;0.47;;
20792;SDS011;10556;-33.662;151.094;2023-06-14T06:16:45;0.20;;;0.20;;
20792;SDS011;10556;-33.662;151.094;2023-06-14T06:21:46;4.97;;;2.03;;
20792;SDS011;10556;-33.662;151.094;2023-06-14T06:26:49;10.97;;;6.33;;
20792;SDS011;10556;-33.662;151.094;2023-06-14T06:31:50;5.90;;;3.90;;
20792;SDS011;10556;-33.662;151.094;2023-06-14T06:36:52;2.50;;;1.30;;
20792;SDS011;10556;-33.662;151.094;2023-06-14T06:41:55;1.47;;;0.70;;
20792;SDS011;10556;-33.662;151.094;2023-06-14T06:46:57;2.90;;;1.60;;
20792;SDS011;10556;-33.662;151.094;2023-06-14T06:52:02;2.50;;;0.90;;
20792;SDS011;10556;-33.662;151.094;2023-06-14T06:57:06;1.47;;;0.73;;
20792;SDS011;10556;-33.662;151.094;2023-06-14T07:02:07;1.53;;;0.70;;
20792;SDS011;10556;-33.662;151.094;2023-06-14T07:07:08;0.70;;;0.60;;
20792;SDS011;10556;-33.662;151.094;2023-06-14T07:12:12;1.43;;;0.60;;
20792;SDS011;10556;-33.662;151.094;2023-06-14T07:17:13;1.47;;;0.50;;
20792;SDS011;10556;-33.662;151.094;2023-06-14T07:22:14;3.40;;;0.73;;
20792;SDS011;10556;-33.662;151.094;2023-06-14T07:27:18;0.60;;;0.40;;
20792;SDS011;10556;-33.662;151.094;2023-06-14T07:32:19;0.50;;;0.30;;
20792;SDS011;10556;-33.662;151.094;2023-06-14T07:37:20;0.73;;;0.20;;
20792;SDS011;10556;-33.662;151.094;2023-06-14T07:42:23;2.33;;;0.30;;
20792;SDS011;10556;-33.662;151.094;2023-06-14T07:47:25;0.50;;;0.37;;
20792;SDS011;10556;-33.662;151.094;2023-06-14T07:52:26;2.30;;;0.60;;
20792;SDS011;10556;-33.662;151.094;2023-06-14T07:57:29;1.30;;;0.80;;
20792;SDS011;10556;-33.662;151.094;2023-06-14T08:02:31;1.40;;;0.70;;
20792;SDS011;10556;-33.662;151.094;2023-06-14T08:07:32;1.17;;;0.67;;
20792;SDS011;10556;-33.662;151.094;2023-06-14T08:12:35;1.93;;;0.60;;
20792;SDS011;10556;-33.662;151.094;2023-06-14T08:17:37;3.00;;;1.20;;
20792;SDS011;10556;-33.662;151.094;2023-06-14T08:22:39;1.67;;;1.17;;
20792;SDS011;10556;-33.662;151.094;2023-06-14T08:27:42;1.87;;;0.70;;
20792;SDS011;10556;-33.662;151.094;2023-06-14T08:32:43;2.67;;;0.80;;
20792;SDS011;10556;-33.662;151.094;2023-06-14T08:37:45;2.17;;;0.70;;
20792;SDS011;10556;-33.662;151.094;2023-06-14T08:42:50;2.27;;;0.67;;
20792;SDS011;10556;-33.662;151.094;2023-06-14T08:47:51;0.80;;;0.50;;
20792;SDS011;10556;-33.662;151.094;2023-06-14T08:52:54;1.53;;;0.60;;
20792;SDS011;10556;-33.662;151.094;2023-06-14T08:57:57;0.40;;;0.40;;
20792;SDS011;10556;-33.662;151.094;2023-06-14T09:02:59;1.10;;;0.87;;
20792;SDS011;10556;-33.662;151.094;2023-06-14T09:08:00;2.57;;;0.87;;
20792;SDS011;10556;-33.662;151.094;2023-06-14T09:13:03;3.60;;;1.10;;
20792;SDS011;10556;-33.662;151.094;2023-06-14T09:18:05;1.40;;;0.70;;
20792;SDS011;10556;-33.662;151.094;2023-06-14T09:23:06;3.83;;;1.10;;
20792;SDS011;10556;-33.662;151.094;2023-06-14T09:28:10;5.27;;;1.80;;
20792;SDS011;10556;-33.662;151.094;2023-06-14T09:33:11;3.37;;;1.80;;
20792;SDS011;10556;-33.662;151.094;2023-06-14T09:38:17;3.07;;;1.50;;
20792;SDS011;10556;-33.662;151.094;2023-06-14T09:43:20;2.37;;;1.73;;
20792;SDS011;10556;-33.662;151.094;2023-06-14T09:48:22;2.10;;;1.03;;
20792;SDS011;10556;-33.662;151.094;2023-06-14T09:53:23;1.33;;;0.80;;
20792;SDS011;10556;-33.662;151.094;2023-06-14T09:58:27;2.33;;;0.80;;
20792;SDS011;10556;-33.662;151.094;2023-06-14T10:03:29;1.43;;;0.40;;
20792;SDS011;10556;-33.662;151.094;2023-06-14T10:08:31;2.10;;;0.80;;
20792;SDS011;10556;-33.662;151.094;2023-06-14T10:13:35;1.67;;;0.53;;
20792;SDS011;10556;-33.662;151.094;2023-06-14T10:18:40;5.13;;;1.73;;
20792;SDS011;10556;-33.662;151.094;2023-06-14T10:23:44;4.90;;;1.80;;
20792;SDS011;10556;-33.662;151.094;2023-06-14T10:28:53;8.93;;;2.83;;
20792;SDS011;10556;-33.662;151.094;2023-06-14T10:33:56;3.07;;;1.70;;
20792;SDS011;10556;-33.662;151.094;2023-06-14T10:38:58;2.83;;;1.07;;
20792;SDS011;10556;-33.662;151.094;2023-06-14T10:49:23;5.70;;;2.83;;
20792;SDS011;10556;-33.662;151.094;2023-06-14T10:54:37;4.53;;;2.57;;
20792;SDS011;10556;-33.662;151.094;2023-06-14T10:59:38;4.33;;;1.77;;
20792;SDS011;10556;-33.662;151.094;2023-06-14T11:04:46;5.30;;;2.20;;
20792;SDS011;10556;-33.662;151.094;2023-06-14T11:09:52;4.03;;;2.23;;
20792;SDS011;10556;-33.662;151.094;2023-06-14T11:14:56;7.37;;;2.70;;
20792;SDS011;10556;-33.662;151.094;2023-06-14T11:20:12;11.57;;;5.20;;
20792;SDS011;10556;-33.662;151.094;2023-06-14T11:25:13;10.70;;;5.80;;
20792;SDS011;10556;-33.662;151.094;2023-06-14T11:30:15;9.63;;;5.33;;
20792;SDS011;10556;-33.662;151.094;2023-06-14T11:35:18;6.80;;;3.77;;
20792;SDS011;10556;-33.662;151.094;2023-06-14T11:40:19;10.97;;;7.70;;
20792;SDS011;10556;-33.662;151.094;2023-06-14T11:45:21;27.93;;;16.57;;
20792;SDS011;10556;-33.662;151.094;2023-06-14T11:50:24;34.70;;;23.10;;
20792;SDS011;10556;-33.662;151.094;2023-06-14T11:55:25;50.90;;;32.10;;
20792;SDS011;10556;-33.662;151.094;2023-06-14T12:00:27;15.87;;;9.33;;
20792;SDS011;10556;-33.662;151.094;2023-06-14T12:05:30;4.97;;;3.50;;
20792;SDS011;10556;-33.662;151.094;2023-06-14T12:10:39;2.50;;;1.10;;
20792;SDS011;10556;-33.662;151.094;2023-06-14T12:15:41;2.43;;;0.70;;
20792;SDS011;10556;-33.662;151.094;2023-06-14T12:20:47;0.80;;;0.40;;
20792;SDS011;10556;-33.662;151.094;2023-06-14T12:25:48;8.80;;;2.70;;
20792;SDS011;10556;-33.662;151.094;2023-06-14T12:30:50;2.40;;;1.07;;
20792;SDS011;10556;-33.662;151.094;2023-06-14T12:35:53;3.50;;;1.00;;
20792;SDS011;10556;-33.662;151.094;2023-06-14T12:40:55;1.97;;;0.60;;
20792;SDS011;10556;-33.662;151.094;2023-06-14T12:45:57;2.90;;;2.10;;
20792;SDS011;10556;-33.662;151.094;2023-06-14T12:51:00;4.47;;;1.77;;
20792;SDS011;10556;-33.662;151.094;2023-06-14T12:56:01;7.80;;;4.33;;
20792;SDS011;10556;-33.662;151.094;2023-06-14T13:01:03;6.23;;;2.47;;
20792;SDS011;10556;-33.662;151.094;2023-06-14T13:06:06;2.50;;;0.90;;
20792;SDS011;10556;-33.662;151.094;2023-06-14T13:11:07;0.97;;;0.53;;
20792;SDS011;10556;-33.662;151.094;2023-06-14T13:16:08;0.73;;;0.40;;
20792;SDS011;10556;-33.662;151.094;2023-06-14T13:21:12;1.03;;;0.47;;
20792;SDS011;10556;-33.662;151.094;2023-06-14T13:26:13;2.07;;;0.30;;
20792;SDS011;10556;-33.662;151.094;2023-06-14T13:31:14;1.53;;;0.43;;
20792;SDS011;10556;-33.662;151.094;2023-06-14T13:36:17;2.00;;;0.40;;
20792;SDS011;10556;-33.662;151.094;2023-06-14T13:41:19;1.70;;;0.60;;
20792;SDS011;10556;-33.662;151.094;2023-06-14T13:46:20;2.17;;;0.40;;
20792;SDS011;10556;-33.662;151.094;2023-06-14T13:51:23;1.33;;;0.47;;
20792;SDS011;10556;-33.662;151.094;2023-06-14T13:56:25;1.47;;;0.43;;
20792;SDS011;10556;-33.662;151.094;2023-06-14T14:01:26;4.03;;;0.50;;
20792;SDS011;10556;-33.662;151.094;2023-06-14T14:06:29;0.70;;;0.30;;
20792;SDS011;10556;-33.662;151.094;2023-06-14T14:11:31;2.27;;;1.00;;
20792;SDS011;10556;-33.662;151.094;2023-06-14T14:16:32;2.63;;;1.10;;
20792;SDS011;10556;-33.662;151.094;2023-06-14T14:21:35;1.57;;;0.80;;
20792;SDS011;10556;-33.662;151.094;2023-06-14T14:26:37;1.30;;;0.70;;
20792;SDS011;10556;-33.662;151.094;2023-06-14T14:31:38;3.10;;;0.50;;
20792;SDS011;10556;-33.662;151.094;2023-06-14T14:36:41;1.87;;;0.40;;
20792;SDS011;10556;-33.662;151.094;2023-06-14T14:41:43;2.13;;;0.53;;
20792;SDS011;10556;-33.662;151.094;2023-06-14T14:46:44;2.63;;;0.80;;
20792;SDS011;10556;-33.662;151.094;2023-06-14T14:51:47;2.30;;;0.70;;
20792;SDS011;10556;-33.662;151.094;2023-06-14T14:56:48;2.37;;;0.33;;
20792;SDS011;10556;-33.662;151.094;2023-06-14T15:01:50;2.80;;;0.83;;
20792;SDS011;10556;-33.662;151.094;2023-06-14T15:06:53;7.60;;;1.40;;
20792;SDS011;10556;-33.662;151.094;2023-06-14T15:11:54;6.97;;;2.00;;
20792;SDS011;10556;-33.662;151.094;2023-06-14T15:16:56;3.93;;;1.00;;
20792;SDS011;10556;-33.662;151.094;2023-06-14T15:21:59;2.07;;;0.70;;
20792;SDS011;10556;-33.662;151.094;2023-06-14T15:27:00;3.80;;;0.70;;
20792;SDS011;10556;-33.662;151.094;2023-06-14T15:32:01;3.70;;;0.80;;
20792;SDS011;10556;-33.662;151.094;2023-06-14T15:37:05;1.17;;;0.40;;
20792;SDS011;10556;-33.662;151.094;2023-06-14T15:42:07;2.10;;;0.50;;
20792;SDS011;10556;-33.662;151.094;2023-06-14T15:47:08;3.53;;;0.50;;
20792;SDS011;10556;-33.662;151.094;2023-06-14T15:52:11;1.53;;;0.43;;
20792;SDS011;10556;-33.662;151.094;2023-06-14T15:57:13;1.70;;;0.57;;
20792;SDS011;10556;-33.662;151.094;2023-06-14T16:02:14;2.63;;;0.60;;
20792;SDS011;10556;-33.662;151.094;2023-06-14T16:07:17;3.33;;;0.50;;
20792;SDS011;10556;-33.662;151.094;2023-06-14T16:12:18;2.50;;;0.43;;
20792;SDS011;10556;-33.662;151.094;2023-06-14T16:17:20;1.67;;;0.43;;
20792;SDS011;10556;-33.662;151.094;2023-06-14T16:22:23;1.60;;;0.70;;
20792;SDS011;10556;-33.662;151.094;2023-06-14T16:27:25;2.23;;;0.57;;
20792;SDS011;10556;-33.662;151.094;2023-06-14T16:32:26;1.93;;;0.70;;
20792;SDS011;10556;-33.662;151.094;2023-06-14T16:37:29;2.50;;;0.67;;
20792;SDS011;10556;-33.662;151.094;2023-06-14T16:42:31;4.07;;;0.70;;
20792;SDS011;10556;-33.662;151.094;2023-06-14T16:47:32;2.67;;;0.57;;
20792;SDS011;10556;-33.662;151.094;2023-06-14T16:52:35;5.60;;;0.57;;
20792;SDS011;10556;-33.662;151.094;2023-06-14T16:57:37;2.20;;;0.90;;
20792;SDS011;10556;-33.662;151.094;2023-06-14T17:02:39;2.73;;;0.60;;
20792;SDS011;10556;-33.662;151.094;2023-06-14T17:07:42;1.60;;;0.60;;
20792;SDS011;10556;-33.662;151.094;2023-06-14T17:12:43;3.77;;;0.70;;
20792;SDS011;10556;-33.662;151.094;2023-06-14T17:17:45;1.67;;;0.53;;
20792;SDS011;10556;-33.662;151.094;2023-06-14T17:22:48;4.17;;;0.60;;
20792;SDS011;10556;-33.662;151.094;2023-06-14T17:27:49;2.60;;;0.87;;
20792;SDS011;10556;-33.662;151.094;2023-06-14T17:32:51;2.70;;;0.80;;
20792;SDS011;10556;-33.662;151.094;2023-06-14T17:37:55;2.73;;;0.60;;
20792;SDS011;10556;-33.662;151.094;2023-06-14T17:42:57;2.67;;;0.73;;
20792;SDS011;10556;-33.662;151.094;2023-06-14T17:47:59;3.40;;;1.20;;
20792;SDS011;10556;-33.662;151.094;2023-06-14T17:53:02;1.63;;;0.50;;
20792;SDS011;10556;-33.662;151.094;2023-06-14T17:58:04;2.57;;;0.90;;
20792;SDS011;10556;-33.662;151.094;2023-06-14T18:03:05;3.30;;;0.87;;
20792;SDS011;10556;-33.662;151.094;2023-06-14T18:08:09;2.80;;;0.87;;
20792;SDS011;10556;-33.662;151.094;2023-06-14T18:13:10;2.00;;;0.70;;
20792;SDS011;10556;-33.662;151.094;2023-06-14T18:18:12;21.03;;;10.20;;
20792;SDS011;10556;-33.662;151.094;2023-06-14T18:23:15;8.57;;;4.10;;
20792;SDS011;10556;-33.662;151.094;2023-06-14T18:28:16;5.10;;;1.70;;
20792;SDS011;10556;-33.662;151.094;2023-06-14T18:33:17;3.07;;;1.00;;
20792;SDS011;10556;-33.662;151.094;2023-06-14T18:38:21;1.30;;;0.50;;
20792;SDS011;10556;-33.662;151.094;2023-06-14T18:43:22;2.33;;;0.37;;
20792;SDS011;10556;-33.662;151.094;2023-06-14T18:48:23;3.23;;;0.73;;
20792;SDS011;10556;-33.662;151.094;2023-06-14T18:53:27;2.17;;;0.53;;
20792;SDS011;10556;-33.662;151.094;2023-06-14T18:58:28;3.10;;;0.37;;
20792;SDS011;10556;-33.662;151.094;2023-06-14T19:03:29;1.70;;;0.50;;
20792;SDS011;10556;-33.662;151.094;2023-06-14T19:08:33;1.50;;;0.40;;
20792;SDS011;10556;-33.662;151.094;2023-06-14T19:13:34;1.37;;;0.37;;
20792;SDS011;10556;-33.662;151.094;2023-06-14T19:18:35;3.03;;;0.40;;
20792;SDS011;10556;-33.662;151.094;2023-06-14T19:23:38;0.70;;;0.40;;
20792;SDS011;10556;-33.662;151.094;2023-06-14T19:28:40;1.17;;;0.40;;
20792;SDS011;10556;-33.662;151.094;2023-06-14T19:33:41;2.03;;;0.50;;
20792;SDS011;10556;-33.662;151.094;2023-06-14T19:38:44;3.33;;;0.60;;
20792;SDS011;10556;-33.662;151.094;2023-06-14T19:43:46;2.40;;;0.30;;
20792;SDS011;10556;-33.662;151.094;2023-06-14T19:48:47;2.60;;;0.40;;
20792;SDS011;10556;-33.662;151.094;2023-06-14T19:53:50;2.93;;;0.30;;
20792;SDS011;10556;-33.662;151.094;2023-06-14T19:58:52;4.07;;;0.50;;
20792;SDS011;10556;-33.662;151.094;2023-06-14T20:03:53;1.60;;;0.40;;
20792;SDS011;10556;-33.662;151.094;2023-06-14T20:08:56;1.43;;;0.40;;
20792;SDS011;10556;-33.662;151.094;2023-06-14T20:13:58;7.10;;;0.40;;
20792;SDS011;10556;-33.662;151.094;2023-06-14T20:18:59;1.50;;;0.30;;
20792;SDS011;10556;-33.662;151.094;2023-06-14T20:24:02;1.30;;;0.27;;
20792;SDS011;10556;-33.662;151.094;2023-06-14T20:29:04;1.40;;;0.37;;
20792;SDS011;10556;-33.662;151.094;2023-06-14T20:34:05;2.37;;;0.60;;
20792;SDS011;10556;-33.662;151.094;2023-06-14T20:39:08;3.00;;;0.53;;
20792;SDS011;10556;-33.662;151.094;2023-06-14T20:44:10;5.13;;;0.67;;
20792;SDS011;10556;-33.662;151.094;2023-06-14T20:49:11;1.43;;;0.40;;
20792;SDS011;10556;-33.662;151.094;2023-06-14T20:54:14;1.43;;;0.40;;
20792;SDS011;10556;-33.662;151.094;2023-06-14T20:59:15;0.83;;;0.20;;
20792;SDS011;10556;-33.662;151.094;2023-06-14T21:04:17;1.13;;;0.20;;
20792;SDS011;10556;-33.662;151.094;2023-06-14T21:09:20;1.33;;;0.40;;
20792;SDS011;10556;-33.662;151.094;2023-06-14T21:14:21;0.67;;;0.10;;
20792;SDS011;10556;-33.662;151.094;2023-06-14T21:19:23;0.90;;;0.20;;
20792;SDS011;10556;-33.662;151.094;2023-06-14T21:24:26;1.73;;;0.30;;
20792;SDS011;10556;-33.662;151.094;2023-06-14T21:29:27;3.53;;;0.30;;
20792;SDS011;10556;-33.662;151.094;2023-06-14T21:34:29;0.97;;;0.20;;
20792;SDS011;10556;-33.662;151.094;2023-06-14T21:39:32;1.40;;;0.20;;
20792;SDS011;10556;-33.662;151.094;2023-06-14T21:44:33;0.60;;;0.27;;
20792;SDS011;10556;-33.662;151.094;2023-06-14T21:49:34;0.63;;;0.30;;
20792;SDS011;10556;-33.662;151.094;2023-06-14T21:54:38;3.80;;;0.30;;
20792;SDS011;10556;-33.662;151.094;2023-06-14T21:59:39;1.17;;;0.10;;
20792;SDS011;10556;-33.662;151.094;2023-06-14T22:04:41;0.80;;;0.30;;
20792;SDS011;10556;-33.662;151.094;2023-06-14T22:09:44;0.87;;;0.40;;
20792;SDS011;10556;-33.662;151.094;2023-06-14T22:14:46;0.80;;;0.30;;
20792;SDS011;10556;-33.662;151.094;2023-06-14T22:19:47;1.73;;;0.47;;
20792;SDS011;10556;-33.662;151.094;2023-06-14T22:24:50;2.20;;;0.50;;
20792;SDS011;10556;-33.662;151.094;2023-06-14T22:29:51;0.57;;;0.17;;
20792;SDS011;10556;-33.662;151.094;2023-06-14T22:34:53;1.97;;;1.20;;
20792;SDS011;10556;-33.662;151.094;2023-06-14T22:39:56;1.00;;;0.60;;
20792;SDS011;10556;-33.662;151.094;2023-06-14T22:44:57;1.10;;;0.63;;
20792;SDS011;10556;-33.662;151.094;2023-06-14T22:49:59;1.70;;;0.77;;
20792;SDS011;10556;-33.662;151.094;2023-06-14T22:55:02;3.97;;;0.60;;
20792;SDS011;10556;-33.662;151.094;2023-06-14T23:00:03;1.20;;;0.40;;
20792;SDS011;10556;-33.662;151.094;2023-06-14T23:05:05;1.40;;;0.60;;
20792;SDS011;10556;-33.662;151.094;2023-06-14T23:10:09;1.30;;;0.30;;
20792;SDS011;10556;-33.662;151.094;2023-06-14T23:15:10;3.40;;;0.50;;
20792;SDS011;10556;-33.662;151.094;2023-06-14T23:20:12;1.53;;;0.60;;
20792;SDS011;10556;-33.662;151.094;2023-06-14T23:25:15;3.13;;;0.80;;
20792;SDS011;10556;-33.662;151.094;2023-06-14T23:30:16;1.70;;;0.43;;
20792;SDS011;10556;-33.662;151.094;2023-06-14T23:35:18;0.60;;;0.27;;
20792;SDS011;10556;-33.662;151.094;2023-06-14T23:40:21;0.40;;;0.20;;
20792;SDS011;10556;-33.662;151.094;2023-06-14T23:45:22;2.13;;;0.60;;
20792;SDS011;10556;-33.662;151.094;2023-06-14T23:50:24;0.40;;;0.30;;
20792;SDS011;10556;-33.662;151.094;2023-06-14T23:55:27;1.00;;;0.43;;
